createdAt,value
2022-11-18T00:00:28.487Z,58.22
2022-11-18T00:05:32.024Z,58.40
2022-11-18T00:10:34.081Z,58.55
2022-11-18T00:15:35.788Z,58.55
2022-11-18T00:20:39.228Z,58.57
2022-11-18T00:25:42.451Z,58.38
2022-11-18T00:30:47.112Z,58.28
2022-11-18T00:35:55.826Z,58.61
2022-11-18T00:41:12.299Z,58.45
2022-11-18T00:46:14.158Z,58.38
2022-11-18T00:51:19.282Z,58.54
2022-11-18T00:56:22.014Z,58.26
2022-11-18T01:01:24.417Z,58.38
2022-11-18T01:06:26.252Z,58.76
2022-11-18T01:11:46.800Z,58.61
2022-11-18T01:16:51.358Z,58.32
2022-11-18T01:21:54.008Z,58.61
2022-11-18T01:26:56.017Z,58.51
2022-11-18T01:37:20.739Z,57.99
2022-11-18T01:42:22.660Z,58.09
2022-11-18T01:47:30.636Z,58.21
2022-11-18T01:52:36.375Z,57.98
2022-11-18T01:57:38.285Z,58.37
2022-11-18T02:02:40.300Z,58.16
2022-11-18T02:07:43.634Z,58.31
2022-11-18T02:12:45.639Z,58.37
2022-11-18T02:17:58.655Z,58.27
2022-11-18T02:23:36.535Z,58.02
2022-11-18T02:28:53.690Z,58.73
2022-11-18T02:34:47.087Z,58.23
2022-11-18T02:39:57.993Z,58.31
2022-11-18T02:45:06.291Z,58.28
2022-11-18T02:50:14.420Z,58.43
2022-11-18T02:55:17.820Z,58.60
2022-11-18T03:00:19.554Z,58.62
2022-11-18T03:05:36.123Z,58.36
2022-11-18T03:10:58.775Z,58.58
2022-11-18T03:16:14.848Z,58.53
2022-11-18T03:21:24.198Z,58.38
2022-11-18T03:26:33.221Z,58.36
2022-11-18T03:31:46.724Z,58.30
2022-11-18T03:36:56.184Z,58.44
2022-11-18T03:42:25.852Z,58.68
2022-11-18T03:47:38.531Z,58.21
2022-11-18T03:52:41.716Z,58.18
2022-11-18T03:58:25.064Z,58.05
2022-11-18T04:03:28.312Z,58.04
2022-11-18T04:08:37.581Z,57.94
2022-11-18T04:13:39.481Z,57.92
2022-11-18T04:18:42.214Z,58.26
2022-11-18T04:23:43.907Z,58.43
2022-11-18T04:28:46.725Z,58.25
2022-11-18T04:33:48.579Z,58.16
2022-11-18T04:38:50.381Z,58.20
2022-11-18T04:43:51.972Z,58.35
2022-11-18T04:48:53.579Z,57.98
2022-11-18T04:53:55.190Z,58.36
2022-11-18T04:59:00.139Z,58.14
2022-11-18T05:04:02.267Z,58.12
2022-11-18T05:09:04.325Z,58.44
2022-11-18T05:14:05.941Z,58.19
2022-11-18T05:19:08.419Z,57.90
2022-11-18T05:24:10.511Z,58.39
2022-11-18T05:29:13.088Z,58.14
2022-11-18T05:34:15.976Z,58.44
2022-11-18T05:39:17.970Z,58.10
2022-11-18T05:44:19.799Z,58.41
2022-11-18T05:49:21.600Z,58.64
2022-11-18T05:54:23.307Z,58.11
2022-11-18T05:59:24.914Z,58.23
2022-11-18T06:04:41.543Z,58.43
2022-11-18T06:09:49.293Z,58.43
2022-11-18T06:14:55.081Z,58.61
2022-11-18T06:19:58.061Z,58.48
2022-11-18T06:25:01.197Z,58.26
2022-11-18T06:30:03.232Z,58.23
2022-11-18T06:35:05.390Z,58.34
2022-11-18T06:40:07.850Z,58.24
2022-11-18T06:45:09.891Z,58.54
2022-11-18T06:50:11.741Z,58.59
2022-11-18T06:55:13.415Z,58.38
2022-11-18T07:00:16.001Z,58.46
2022-11-18T07:05:17.606Z,58.24
2022-11-18T07:10:19.455Z,58.55
2022-11-18T07:15:21.022Z,58.43
2022-11-18T07:20:22.655Z,58.74
2022-11-18T07:25:24.298Z,58.65
2022-11-18T07:30:25.992Z,58.61
2022-11-18T07:35:27.565Z,59.04
2022-11-18T07:40:29.165Z,58.64
2022-11-18T07:45:30.781Z,58.67
2022-11-18T07:50:32.527Z,58.54
2022-11-18T07:55:34.191Z,58.78
2022-11-18T08:00:35.809Z,58.81
2022-11-18T08:05:37.617Z,58.80
2022-11-18T08:10:39.322Z,58.79
2022-11-18T08:15:44.111Z,58.96
2022-11-18T08:20:46.277Z,58.53
2022-11-18T08:25:48.082Z,58.82
2022-11-18T08:30:50.211Z,58.82
2022-11-18T08:35:51.814Z,58.43
2022-11-18T08:40:53.654Z,58.60
2022-11-18T08:45:55.445Z,58.50
2022-11-18T08:50:58.767Z,58.74
2022-11-18T08:56:01.456Z,58.57
2022-11-18T09:01:06.966Z,58.57
2022-11-18T09:06:10.717Z,58.65
2022-11-18T09:11:18.826Z,58.66
2022-11-18T09:16:27.693Z,59.19
2022-11-18T09:21:30.028Z,58.73
2022-11-18T09:26:32.069Z,59.09
2022-11-18T09:31:33.820Z,58.90
2022-11-18T09:36:35.478Z,58.98
2022-11-18T09:42:21.230Z,59.17
2022-11-18T09:47:34.435Z,58.90
2022-11-18T09:52:46.628Z,59.01
2022-11-18T09:57:55.637Z,58.89
2022-11-18T10:03:05.071Z,59.00
2022-11-18T10:08:28.827Z,58.77
2022-11-18T10:14:02.590Z,58.88
2022-11-18T10:19:16.518Z,59.14
2022-11-18T10:24:25.446Z,59.07
2022-11-18T10:29:27.727Z,59.23
2022-11-18T10:34:29.825Z,59.07
2022-11-18T10:39:31.857Z,58.87
2022-11-18T10:44:39.827Z,58.85
2022-11-18T10:49:41.557Z,58.71
2022-11-18T10:54:43.365Z,58.51
2022-11-18T10:59:54.234Z,58.87
2022-11-18T11:04:56.086Z,58.82
2022-11-18T11:10:13.472Z,58.57
2022-11-18T11:15:21.172Z,58.38
2022-11-18T11:20:26.905Z,58.67
2022-11-18T11:31:15.452Z,58.80
2022-11-18T11:36:17.541Z,58.87
2022-11-18T11:41:24.354Z,58.97
2022-11-18T11:47:07.782Z,58.61
2022-11-18T11:52:24.854Z,58.93
2022-11-18T11:58:01.911Z,58.81
2022-11-18T12:03:41.320Z,59.02
2022-11-18T12:08:56.589Z,58.92
2022-11-18T12:14:38.535Z,58.80
2022-11-18T12:19:41.590Z,58.77
2022-11-18T12:24:43.400Z,58.79
2022-11-18T12:29:51.237Z,58.98
2022-11-18T12:35:00.905Z,59.03
2022-11-18T12:40:02.510Z,58.70
2022-11-18T12:45:46.014Z,58.90
2022-11-18T12:50:49.751Z,59.09
2022-11-18T12:55:52.198Z,59.09
2022-11-18T13:01:08.711Z,58.88
2022-11-18T13:06:30.792Z,58.87
2022-11-18T13:11:46.547Z,58.76
2022-11-18T13:17:07.511Z,58.57
2022-11-18T13:22:39.531Z,58.88
2022-11-18T13:27:52.558Z,59.03
2022-11-18T13:32:58.101Z,58.68
2022-11-18T13:38:02.550Z,58.88
2022-11-18T13:43:04.259Z,58.65
2022-11-18T13:48:13.047Z,58.76
2022-11-18T13:53:27.332Z,58.70
2022-11-18T13:59:10.474Z,59.19
2022-11-18T14:04:19.355Z,58.99
2022-11-18T14:09:31.869Z,58.92
2022-11-18T14:14:36.026Z,59.06
2022-11-18T14:19:38.980Z,59.14
2022-11-18T14:24:42.185Z,59.52
2022-11-18T14:29:50.502Z,59.40
2022-11-18T14:35:00.364Z,59.40
2022-11-18T14:40:02.061Z,59.63
2022-11-18T14:45:03.868Z,59.75
2022-11-18T14:50:12.901Z,59.58
2022-11-18T14:55:14.600Z,59.71
2022-11-18T15:00:17.238Z,59.72
2022-11-18T15:05:18.898Z,59.87
2022-11-18T15:10:20.500Z,59.70
2022-11-18T15:15:22.206Z,59.79
2022-11-18T15:20:23.911Z,59.52
2022-11-18T15:25:25.511Z,59.82
2022-11-18T15:30:27.116Z,59.84
2022-11-18T15:35:28.892Z,59.70
2022-11-18T15:40:30.565Z,59.45
2022-11-18T15:45:32.433Z,59.83
2022-11-18T15:50:34.016Z,59.52
2022-11-18T15:55:35.637Z,59.59
2022-11-18T16:00:37.312Z,59.67
2022-11-18T16:05:38.956Z,59.40
2022-11-18T16:10:59.353Z,59.68
2022-11-18T16:16:01.097Z,59.70
2022-11-18T16:21:02.682Z,59.55
2022-11-18T16:26:04.396Z,59.73
2022-11-18T16:31:25.839Z,59.96
2022-11-18T16:36:28.185Z,59.89
2022-11-18T16:41:32.768Z,60.02
2022-11-18T16:46:37.526Z,59.86
2022-11-18T16:51:44.517Z,59.71
2022-11-18T16:56:47.896Z,60.05
2022-11-18T17:01:51.237Z,59.67
2022-11-18T17:06:54.176Z,59.64
2022-11-18T17:11:56.104Z,59.72
2022-11-18T17:16:57.860Z,59.99
2022-11-18T17:21:59.521Z,59.67
2022-11-18T17:27:01.150Z,59.98
2022-11-18T17:32:02.784Z,59.83
2022-11-18T17:37:07.080Z,59.97
2022-11-18T17:42:14.980Z,59.94
2022-11-18T17:47:17.078Z,59.75
2022-11-18T17:52:19.670Z,59.90
2022-11-18T17:57:21.488Z,59.77
2022-11-18T18:02:23.189Z,59.66
2022-11-18T18:07:24.921Z,59.19
2022-11-18T18:12:45.137Z,59.39
2022-11-18T18:17:49.264Z,58.85
2022-11-18T18:22:51.128Z,58.79
2022-11-18T18:27:53.833Z,59.16
2022-11-18T18:32:55.439Z,58.64
2022-11-18T18:37:58.620Z,58.79
2022-11-18T18:43:00.422Z,58.75
2022-11-18T18:48:05.298Z,58.62
2022-11-18T18:53:10.000Z,58.59
2022-11-18T18:58:11.844Z,58.67
2022-11-18T19:03:15.948Z,58.80
2022-11-18T19:08:19.297Z,58.28
2022-11-18T19:13:21.115Z,58.72
2022-11-18T19:18:27.484Z,58.48
2022-11-18T19:23:32.084Z,58.26
2022-11-18T19:28:38.368Z,58.38
2022-11-18T19:33:40.280Z,58.13
2022-11-18T19:38:42.075Z,58.36
2022-11-18T19:43:44.980Z,58.11
2022-11-18T19:48:48.691Z,57.97
2022-11-18T19:53:52.740Z,57.94
2022-11-18T19:58:59.334Z,58.13
2022-11-18T20:04:03.245Z,57.96
2022-11-18T20:09:10.411Z,58.15
2022-11-18T20:14:12.526Z,57.96
2022-11-18T20:19:15.698Z,57.70
2022-11-18T20:24:19.023Z,57.81
2022-11-18T20:29:23.705Z,57.89
2022-11-18T20:34:26.844Z,57.53
2022-11-18T20:39:29.408Z,57.64
2022-11-18T20:44:33.500Z,57.54
2022-11-18T20:49:35.850Z,57.76
2022-11-18T20:54:39.797Z,58.03
2022-11-18T20:59:44.167Z,58.06
2022-11-18T21:04:47.738Z,58.00
2022-11-18T21:09:50.506Z,57.97
2022-11-18T21:14:52.235Z,58.09
2022-11-18T21:19:53.866Z,58.13
2022-11-18T21:24:56.141Z,58.11
2022-11-18T21:30:02.350Z,58.19
2022-11-18T21:35:04.901Z,57.75
2022-11-18T21:40:07.243Z,58.08
2022-11-18T21:45:11.370Z,58.06
2022-11-18T21:50:13.426Z,57.95
2022-11-18T21:55:16.774Z,58.03
2022-11-18T22:00:19.892Z,57.83
2022-11-18T22:05:21.611Z,57.97
2022-11-18T22:10:24.354Z,58.09
2022-11-18T22:15:26.167Z,58.05
2022-11-18T22:20:27.967Z,58.37
2022-11-18T22:25:30.366Z,58.43
2022-11-18T22:30:33.660Z,57.79
2022-11-18T22:35:36.040Z,57.43
2022-11-18T22:40:38.048Z,56.96
2022-11-18T22:45:41.120Z,56.39
2022-11-18T22:50:44.014Z,55.85
2022-11-18T22:55:45.713Z,55.17
2022-11-18T23:00:49.796Z,55.01
2022-11-18T23:05:51.682Z,54.83
2022-11-18T23:10:54.275Z,55.30
2022-11-18T23:15:59.477Z,55.33
2022-11-18T23:21:04.780Z,55.24
2022-11-18T23:26:10.496Z,55.28
2022-11-18T23:31:14.820Z,55.22
2022-11-18T23:36:21.970Z,55.52
2022-11-18T23:41:23.621Z,55.61
2022-11-18T23:46:27.514Z,55.33
2022-11-18T23:51:30.168Z,55.18
2022-11-18T23:56:37.482Z,55.40
